createdAt,value
2022-07-29T00:02:46.208Z,13684.18555
2022-07-29T00:17:48.573Z,14033.36621
2022-07-29T00:32:50.978Z,14623.28613
2022-07-29T00:47:53.400Z,12880.63672
2022-07-29T01:02:55.705Z,10673.86035
2022-07-29T01:17:58.026Z,5360.24512
2022-07-29T01:33:00.314Z,1727.46716
2022-07-29T01:48:02.770Z,1296.95581
2022-07-29T02:03:05.031Z,968.37927
2022-07-29T02:18:07.367Z,736.31525
2022-07-29T02:33:09.689Z,619.19885
2022-07-29T02:48:11.988Z,435.93332
2022-07-29T03:03:14.489Z,268.93399
2022-07-29T03:18:16.848Z,130.12935
2022-07-29T03:33:19.707Z,40.12322
2022-07-29T03:48:22.728Z,11.92852
2022-07-29T04:03:25.094Z,2.16882
2022-07-29T04:18:27.473Z,0
2022-07-29T04:33:29.677Z,0
2022-07-29T04:48:32.135Z,0
2022-07-29T05:03:34.483Z,0
2022-07-29T05:18:36.790Z,0
2022-07-29T05:33:39.112Z,0
2022-07-29T05:48:41.487Z,0
2022-07-29T06:03:43.901Z,0
2022-07-29T06:18:46.257Z,0
2022-07-29T06:33:48.761Z,0
2022-07-29T06:48:51.221Z,0
2022-07-29T07:03:53.657Z,0
2022-07-29T07:18:55.988Z,0
2022-07-29T07:33:58.272Z,0
2022-07-29T07:49:00.569Z,0
2022-07-29T08:04:02.895Z,0
2022-07-29T08:19:05.204Z,0
2022-07-29T08:34:07.497Z,0
2022-07-29T08:49:09.968Z,0
2022-07-29T09:04:12.312Z,0
2022-07-29T09:19:14.544Z,0
2022-07-29T09:34:16.874Z,0
2022-07-29T09:49:19.279Z,0
2022-07-29T10:04:21.639Z,0
2022-07-29T10:19:23.926Z,0
2022-07-29T10:34:26.193Z,0
2022-07-29T10:49:30.612Z,0
2022-07-29T11:04:33.249Z,0
2022-07-29T11:19:35.830Z,0
2022-07-29T11:34:38.296Z,0
2022-07-29T11:49:44.517Z,1.08441
2022-07-29T12:04:47.074Z,11.92852
2022-07-29T12:19:49.375Z,54.22056
2022-07-29T12:34:53.309Z,173.5058
2022-07-29T12:49:55.714Z,349.18042
2022-07-29T13:04:58.088Z,595.3418
2022-07-29T13:20:00.470Z,897.89252
2022-07-29T13:35:06.338Z,570.40033
2022-07-29T13:50:08.573Z,948.85986
2022-07-29T14:05:10.939Z,1197.19006
2022-07-29T14:20:13.392Z,2446.43188
2022-07-29T14:35:15.689Z,2894.2937
2022-07-29T14:50:17.956Z,3993.88672
2022-07-29T15:05:34.387Z,3251.06494
2022-07-29T15:20:36.730Z,3204.4353
2022-07-29T15:35:39.913Z,5039.25928
2022-07-29T15:50:43.156Z,7812.09863
2022-07-29T16:05:49.645Z,7816.43652
2022-07-29T16:20:51.963Z,7712.33301
2022-07-29T16:35:54.235Z,7769.80664
2022-07-29T16:50:56.496Z,6868.66113
2022-07-29T17:05:58.781Z,6865.40771
2022-07-29T17:21:01.200Z,6864.32324
2022-07-29T17:36:03.464Z,6798.17432
2022-07-29T17:51:05.786Z,6636.59717
2022-07-29T18:06:08.010Z,6584.54541
2022-07-29T18:21:10.318Z,6764.55762
2022-07-29T18:36:12.596Z,6773.23291
2022-07-29T18:51:14.960Z,6721.18115
2022-07-29T19:06:22.648Z,6690.81738
2022-07-29T19:21:27.875Z,6815.5249
2022-07-29T19:36:30.152Z,6878.42041
2022-07-29T19:51:32.443Z,6923.96582
2022-07-29T20:06:34.736Z,6939.14746
2022-07-29T20:21:37.275Z,6940.23193
2022-07-29T20:36:39.592Z,5641.10742
2022-07-29T20:51:43.427Z,6934.81006
2022-07-29T21:06:46.358Z,7033.49121
2022-07-29T21:21:48.596Z,7493.28174
2022-07-29T21:36:51.021Z,8301.16797
2022-07-29T21:51:53.357Z,8977.84082
2022-07-29T22:06:55.696Z,9411.60547
2022-07-29T22:21:57.952Z,9854.04492
2022-07-29T22:37:00.419Z,10388.66016
2022-07-29T22:52:03.080Z,10530.71777
2022-07-29T23:07:05.440Z,11179.19531
2022-07-29T23:22:07.706Z,11912.25781
2022-07-29T23:37:09.983Z,12561.82031
2022-07-29T23:52:12.261Z,13105.11035
